createdAt,value
2018-06-09T00:04:13.013Z,100777.61
2018-06-09T00:09:08.791Z,100778.66
2018-06-09T00:14:03.403Z,100779.17
2018-06-09T00:18:58.264Z,100778.72
2018-06-09T00:23:52.842Z,100778.97
2018-06-09T00:28:47.747Z,100770.64
2018-06-09T00:33:42.289Z,100767.31
2018-06-09T00:38:36.954Z,100758.98
2018-06-09T00:43:31.460Z,100770.16
2018-06-09T00:48:26.919Z,100770.74
2018-06-09T00:53:21.622Z,100769.69
2018-06-09T00:58:16.242Z,100769.98
2018-06-09T01:03:10.993Z,100762.48
2018-06-09T01:08:05.496Z,100762.28
2018-06-09T01:13:00.536Z,100759.17
2018-06-09T01:17:55.189Z,100755.58
2018-06-09T01:22:49.673Z,100751.84
2018-06-09T01:27:44.174Z,100761.52
2018-06-09T01:32:40.160Z,100765.83
2018-06-09T01:37:34.694Z,100760.52
2018-06-09T01:42:30.035Z,100756.63
2018-06-09T01:47:24.824Z,100765.69
2018-06-09T01:52:19.564Z,100770.20
2018-06-09T01:57:14.028Z,100770.20
2018-06-09T02:02:08.978Z,100769.56
2018-06-09T02:07:03.454Z,100767.89
2018-06-09T02:11:58.276Z,100769.48
2018-06-09T02:16:53.516Z,100775.85
2018-06-09T02:21:48.724Z,100779.02
2018-06-09T02:26:44.363Z,100772.87
2018-06-09T02:31:39.166Z,100768.98
2018-06-09T02:36:33.804Z,100762.27
2018-06-09T02:41:28.586Z,100763.45
2018-06-09T02:46:23.677Z,100761.72
2018-06-09T02:51:18.284Z,100772.28
2018-06-09T02:56:12.863Z,100767.17
2018-06-09T03:01:08.175Z,100765.39
2018-06-09T03:06:02.765Z,100763.94
2018-06-09T03:10:57.316Z,100762.67
2018-06-09T03:15:51.598Z,100764.05
2018-06-09T03:20:46.081Z,100762.27
2018-06-09T03:25:40.580Z,100765.03
2018-06-09T03:30:35.166Z,100758.98
2018-06-09T03:35:29.881Z,100766.90
2018-06-09T03:40:24.420Z,100759.39
2018-06-09T03:45:18.949Z,100767.30
2018-06-09T03:50:13.538Z,100780.94
2018-06-09T03:55:08.095Z,100784.70
2018-06-09T04:00:02.676Z,100789.26
2018-06-09T04:04:57.987Z,100787.83
2018-06-09T04:09:53.798Z,100792.61
2018-06-09T04:14:48.913Z,100794.84
2018-06-09T04:19:43.434Z,100786.03
2018-06-09T04:24:37.900Z,100783.47
2018-06-09T04:29:32.279Z,100785.06
2018-06-09T04:34:26.871Z,100783.66
2018-06-09T04:39:21.476Z,100783.05
2018-06-09T04:44:16.231Z,100787.48
2018-06-09T04:49:10.602Z,100783.81
2018-06-09T04:54:05.500Z,100778.48
2018-06-09T04:58:59.948Z,100797.56
2018-06-09T05:03:54.455Z,100798.23
2018-06-09T05:08:49.150Z,100794.41
2018-06-09T05:13:43.408Z,100797.44
2018-06-09T05:18:37.908Z,100784.83
2018-06-09T05:23:32.413Z,100796.79
2018-06-09T05:28:27.052Z,100797.28
2018-06-09T05:33:21.534Z,100790.73
2018-06-09T05:38:16.017Z,100795.69
2018-06-09T05:43:11.184Z,100794.05
2018-06-09T05:48:05.875Z,100803.09
2018-06-09T05:53:00.490Z,100804.15
2018-06-09T05:57:54.954Z,100798.99
2018-06-09T06:02:49.604Z,100804.77
2018-06-09T06:07:44.438Z,100807.70
2018-06-09T06:12:38.999Z,100815.55
2018-06-09T06:17:33.515Z,100816.84
2018-06-09T06:22:28.310Z,100814.27
2018-06-09T06:27:22.919Z,100827.31
2018-06-09T06:32:17.530Z,100824.02
2018-06-09T06:37:12.667Z,100822.39
2018-06-09T06:42:07.320Z,100829.55
2018-06-09T06:47:02.455Z,100841.52
2018-06-09T06:51:57.174Z,100848.92
2018-06-09T06:56:51.538Z,100858.69
2018-06-09T07:01:46.689Z,100851.63
2018-06-09T07:06:41.559Z,100852.97
2018-06-09T07:11:36.889Z,100847.45
2018-06-09T07:16:31.642Z,100845.52
2018-06-09T07:21:26.729Z,100851.33
2018-06-09T07:26:21.412Z,100852.19
2018-06-09T07:31:16.214Z,100838.91
2018-06-09T07:36:10.816Z,100843.80
2018-06-09T07:41:05.418Z,100824.25
2018-06-09T07:45:59.937Z,100830.94
2018-06-09T07:50:54.624Z,100838.05
2018-06-09T07:55:49.561Z,100837.39
2018-06-09T08:00:44.871Z,100834.84
2018-06-09T08:05:40.207Z,100840.77
2018-06-09T08:10:36.110Z,100834.31
2018-06-09T08:15:31.330Z,100837.34
2018-06-09T08:20:26.374Z,100844.03
2018-06-09T08:25:21.334Z,100843.94
2018-06-09T08:30:16.344Z,100837.13
2018-06-09T08:35:11.793Z,100832.74
2018-06-09T08:40:07.156Z,100837.70
2018-06-09T08:45:02.333Z,100834.19
2018-06-09T08:49:57.176Z,100841.69
2018-06-09T08:54:52.050Z,100826.78
2018-06-09T08:59:47.395Z,100827.86
2018-06-09T09:04:42.149Z,100835.53
2018-06-09T09:09:37.201Z,100835.33
2018-06-09T09:14:34.031Z,100832.64
2018-06-09T09:19:28.840Z,100832.30
2018-06-09T09:24:23.570Z,100823.74
2018-06-09T09:29:18.318Z,100822.39
2018-06-09T09:34:13.078Z,100824.70
2018-06-09T09:39:09.458Z,100814.17
2018-06-09T09:44:04.607Z,100809.98
2018-06-09T09:48:59.731Z,100806.10
2018-06-09T09:53:54.717Z,100813.98
2018-06-09T09:58:49.872Z,100805.17
2018-06-09T10:03:44.992Z,100795.34
2018-06-09T10:08:39.784Z,100789.95
2018-06-09T10:13:34.582Z,100784.60
2018-06-09T10:18:29.726Z,100781.52
2018-06-09T10:23:24.516Z,100776.92
2018-06-09T10:28:19.296Z,100783.52
2018-06-09T10:33:14.728Z,100785.58
2018-06-09T10:38:09.490Z,100773.25
2018-06-09T10:43:04.500Z,100766.73
2018-06-09T10:47:59.562Z,100763.77
2018-06-09T10:53:07.977Z,100764.62
2018-06-09T10:58:03.385Z,100766.70
2018-06-09T11:02:58.269Z,100764.27
2018-06-09T11:07:53.294Z,100759.45
2018-06-09T11:12:48.182Z,100753.93
2018-06-09T11:17:49.373Z,100753.62
2018-06-09T11:22:44.204Z,100741.23
2018-06-09T11:27:39.192Z,100743.06
2018-06-09T11:32:34.180Z,100736.09
2018-06-09T11:37:29.197Z,100731.48
2018-06-09T11:42:23.971Z,100736.52
2018-06-09T11:47:19.148Z,100725.28
2018-06-09T11:52:13.930Z,100718.87
2018-06-09T11:57:09.006Z,100721.91
2018-06-09T12:02:03.545Z,100716.00
2018-06-09T12:06:58.315Z,100718.56
2018-06-09T12:11:53.192Z,100714.25
2018-06-09T12:16:47.940Z,100709.86
2018-06-09T12:21:42.678Z,100707.65
2018-06-09T12:26:37.468Z,100702.06
2018-06-09T12:31:32.476Z,100702.77
2018-06-09T12:36:27.377Z,100703.27
2018-06-09T12:41:22.158Z,100700.64
2018-06-09T12:46:16.901Z,100699.37
2018-06-09T12:51:11.636Z,100700.55
2018-06-09T12:56:06.377Z,100701.23
2018-06-09T13:01:01.204Z,100687.66
2018-06-09T13:05:56.186Z,100684.74
2018-06-09T13:10:52.011Z,100680.64
2018-06-09T13:15:46.831Z,100679.86
2018-06-09T13:20:42.188Z,100666.94
2018-06-09T13:25:37.086Z,100660.33
2018-06-09T13:30:31.952Z,100653.23
2018-06-09T13:35:27.001Z,100652.34
2018-06-09T13:40:22.260Z,100642.77
2018-06-09T13:45:17.388Z,100632.48
2018-06-09T13:50:12.202Z,100626.09
2018-06-09T13:55:07.004Z,100627.45
2018-06-09T14:00:02.438Z,100622.13
2018-06-09T14:04:57.225Z,100619.76
2018-06-09T14:09:51.953Z,100615.36
2018-06-09T14:14:46.698Z,100618.25
2018-06-09T14:19:41.881Z,100612.77
2018-06-09T14:24:36.834Z,100614.09
2018-06-09T14:29:31.725Z,100620.78
2018-06-09T14:34:26.617Z,100607.70
2018-06-09T14:39:22.429Z,100610.20
2018-06-09T14:44:17.323Z,100607.09
2018-06-09T14:49:12.048Z,100602.80
2018-06-09T14:54:06.790Z,100608.78
2018-06-09T14:59:02.017Z,100610.97
2018-06-09T15:03:56.766Z,100609.81
2018-06-09T15:08:51.584Z,100601.28
2018-06-09T15:13:46.484Z,100600.63
2018-06-09T15:18:41.464Z,100609.92
2018-06-09T15:23:36.469Z,100604.50
2018-06-09T15:28:31.319Z,100618.44
2018-06-09T15:33:26.504Z,100615.03
2018-06-09T15:38:21.213Z,100606.06
2018-06-09T15:43:16.328Z,100600.06
2018-06-09T15:48:11.424Z,100591.88
2018-06-09T15:53:06.674Z,100591.00
2018-06-09T15:58:02.006Z,100593.95
2018-06-09T16:02:56.676Z,100590.78
2018-06-09T16:07:51.695Z,100585.41
2018-06-09T16:12:46.733Z,100585.55
2018-06-09T16:17:41.620Z,100589.36
2018-06-09T16:22:36.624Z,100590.69
2018-06-09T16:27:31.447Z,100583.05
2018-06-09T16:32:26.595Z,100579.70
2018-06-09T16:37:21.343Z,100568.66
2018-06-09T16:42:16.320Z,100571.31
2018-06-09T16:47:11.028Z,100570.21
2018-06-09T16:52:06.466Z,100575.93
2018-06-09T16:57:01.880Z,100590.43
2018-06-09T17:01:56.641Z,100599.31
2018-06-09T17:06:51.422Z,100607.44
2018-06-09T17:11:46.209Z,100606.97
2018-06-09T17:16:52.244Z,100606.46
2018-06-09T17:21:47.011Z,100596.05
2018-06-09T17:26:41.763Z,100593.05
2018-06-09T17:31:36.644Z,100597.03
2018-06-09T17:36:41.460Z,100588.51
2018-06-09T17:41:46.786Z,100578.02
2018-06-09T17:46:51.805Z,100583.08
2018-06-09T17:51:47.804Z,100581.76
2018-06-09T17:56:52.362Z,100590.80
2018-06-09T18:01:55.125Z,100582.92
2018-06-09T18:06:50.022Z,100587.64
2018-06-09T18:11:44.969Z,100588.27
2018-06-09T18:16:39.733Z,100599.85
2018-06-09T18:21:34.673Z,100604.80
2018-06-09T18:26:29.619Z,100618.30
2018-06-09T18:31:24.621Z,100610.66
2018-06-09T18:36:19.532Z,100615.66
2018-06-09T18:41:14.314Z,100609.33
2018-06-09T18:46:09.256Z,100615.64
2018-06-09T18:51:04.021Z,100613.36
2018-06-09T18:55:58.218Z,100619.56
2018-06-09T19:00:52.792Z,100621.00
2018-06-09T19:06:01.837Z,100627.23
2018-06-09T19:10:56.877Z,100628.70
2018-06-09T19:15:53.144Z,100634.70
2018-06-09T19:20:48.765Z,100642.62
2018-06-09T19:25:44.169Z,100647.50
2018-06-09T19:30:39.391Z,100647.44
2018-06-09T19:35:35.000Z,100643.08
2018-06-09T19:40:30.908Z,100642.80
2018-06-09T19:45:26.360Z,100648.09
2018-06-09T19:50:21.300Z,100647.30
2018-06-09T19:55:16.170Z,100655.66
2018-06-09T20:00:11.361Z,100653.87
2018-06-09T20:05:06.515Z,100660.42
2018-06-09T20:10:01.843Z,100663.34
2018-06-09T20:14:56.344Z,100675.56
2018-06-09T20:19:51.609Z,100674.89
2018-06-09T20:24:46.276Z,100679.20
2018-06-09T20:29:41.338Z,100679.75
2018-06-09T20:34:35.924Z,100680.81
2018-06-09T20:39:31.925Z,100675.78
2018-06-09T20:44:26.689Z,100674.66
2018-06-09T20:49:21.575Z,100672.14
2018-06-09T20:54:16.297Z,100667.95
2018-06-09T20:59:12.144Z,100660.37
2018-06-09T21:04:07.922Z,100651.58
2018-06-09T21:09:02.372Z,100656.00
2018-06-09T21:13:57.488Z,100653.18
2018-06-09T21:18:52.307Z,100650.52
2018-06-09T21:23:47.259Z,100661.84
2018-06-09T21:28:47.295Z,100660.49
2018-06-09T21:35:03.564Z,100668.12
2018-06-09T21:40:02.230Z,100676.76
2018-06-09T21:45:03.802Z,100682.22
2018-06-09T21:49:58.584Z,100684.11
2018-06-09T21:54:53.608Z,100682.13
2018-06-09T21:59:48.697Z,100678.12
2018-06-09T22:04:43.661Z,100680.23
2018-06-09T22:09:39.393Z,100683.29
2018-06-09T22:14:34.074Z,100691.66
2018-06-09T22:19:28.752Z,100698.50
2018-06-09T22:24:23.514Z,100701.28
2018-06-09T22:29:19.312Z,100695.70
2018-06-09T22:34:14.317Z,100693.34
2018-06-09T22:39:08.983Z,100696.75
2018-06-09T22:44:04.061Z,100680.88
2018-06-09T22:48:59.105Z,100678.67
2018-06-09T22:53:54.082Z,100701.63
2018-06-09T22:58:49.767Z,100713.09
2018-06-09T23:03:44.523Z,100707.03
2018-06-09T23:08:39.288Z,100716.62
2018-06-09T23:13:34.647Z,100752.17
2018-06-09T23:18:29.622Z,100741.55
2018-06-09T23:23:24.175Z,100731.92
2018-06-09T23:28:18.586Z,100738.25
2018-06-09T23:33:13.741Z,100745.64
2018-06-09T23:38:10.586Z,100750.42
2018-06-09T23:43:05.910Z,100747.05
2018-06-09T23:48:00.768Z,100737.62
2018-06-09T23:52:55.688Z,100743.41
2018-06-09T23:57:50.828Z,100746.34
